sensor_id;sensor_type;location;lat;lon;timestamp;temperature;humidity
27409;DHT22;20413;50.782;7.152;2022-12-29T00:02:13;12.10;99.90
27409;DHT22;20413;50.782;7.152;2022-12-29T00:04:38;12.10;99.90
27409;DHT22;20413;50.782;7.152;2022-12-29T00:07:04;12.20;99.90
27409;DHT22;20413;50.782;7.152;2022-12-29T00:09:31;12.20;99.90
27409;DHT22;20413;50.782;7.152;2022-12-29T00:11:57;12.20;99.90
27409;DHT22;20413;50.782;7.152;2022-12-29T00:14:23;12.20;99.90
27409;DHT22;20413;50.782;7.152;2022-12-29T00:17:07;12.20;99.90
27409;DHT22;20413;50.782;7.152;2022-12-29T00:19:33;12.30;99.90
27409;DHT22;20413;50.782;7.152;2022-12-29T00:22:17;12.30;99.90
27409;DHT22;20413;50.782;7.152;2022-12-29T00:25:02;12.30;99.90
27409;DHT22;20413;50.782;7.152;2022-12-29T00:27:34;12.30;99.90
27409;DHT22;20413;50.782;7.152;2022-12-29T00:30:23;12.30;99.90
27409;DHT22;20413;50.782;7.152;2022-12-29T00:33:10;12.20;99.90
27409;DHT22;20413;50.782;7.152;2022-12-29T00:38:46;12.30;99.90
27409;DHT22;20413;50.782;7.152;2022-12-29T00:41:31;12.40;99.90
27409;DHT22;20413;50.782;7.152;2022-12-29T00:44:16;12.30;99.90
27409;DHT22;20413;50.782;7.152;2022-12-29T00:46:42;12.30;99.90
27409;DHT22;20413;50.782;7.152;2022-12-29T00:49:10;12.40;99.90
27409;DHT22;20413;50.782;7.152;2022-12-29T00:51:56;12.40;99.90
27409;DHT22;20413;50.782;7.152;2022-12-29T00:54:22;12.40;99.90
27409;DHT22;20413;50.782;7.152;2022-12-29T00:56:48;12.40;99.90
27409;DHT22;20413;50.782;7.152;2022-12-29T00:59:14;12.40;99.90
27409;DHT22;20413;50.782;7.152;2022-12-29T01:01:41;12.40;99.90
27409;DHT22;20413;50.782;7.152;2022-12-29T01:04:07;12.40;99.90
27409;DHT22;20413;50.782;7.152;2022-12-29T01:06:35;12.50;99.90
27409;DHT22;20413;50.782;7.152;2022-12-29T01:09:01;12.50;99.90
27409;DHT22;20413;50.782;7.152;2022-12-29T01:11:45;12.60;99.90
27409;DHT22;20413;50.782;7.152;2022-12-29T01:14:11;12.50;99.90
27409;DHT22;20413;50.782;7.152;2022-12-29T01:16:36;12.50;99.90
27409;DHT22;20413;50.782;7.152;2022-12-29T01:19:03;12.50;99.90
27409;DHT22;20413;50.782;7.152;2022-12-29T01:21:29;12.50;99.90
27409;DHT22;20413;50.782;7.152;2022-12-29T01:23:54;12.50;99.90
27409;DHT22;20413;50.782;7.152;2022-12-29T01:26:20;12.50;99.90
27409;DHT22;20413;50.782;7.152;2022-12-29T01:28:46;12.50;99.90
27409;DHT22;20413;50.782;7.152;2022-12-29T01:31:13;12.40;99.90
27409;DHT22;20413;50.782;7.152;2022-12-29T01:33:39;12.40;99.90
27409;DHT22;20413;50.782;7.152;2022-12-29T01:36:08;12.40;99.90
27409;DHT22;20413;50.782;7.152;2022-12-29T01:38:35;12.40;99.90
27409;DHT22;20413;50.782;7.152;2022-12-29T01:41:01;12.40;99.90
27409;DHT22;20413;50.782;7.152;2022-12-29T01:43:54;12.40;99.90
27409;DHT22;20413;50.782;7.152;2022-12-29T01:46:41;12.40;99.90
27409;DHT22;20413;50.782;7.152;2022-12-29T01:49:19;12.40;99.90
27409;DHT22;20413;50.782;7.152;2022-12-29T01:51:50;12.40;99.90
27409;DHT22;20413;50.782;7.152;2022-12-29T01:54:30;12.50;99.90
27409;DHT22;20413;50.782;7.152;2022-12-29T01:57:00;12.50;99.90
27409;DHT22;20413;50.782;7.152;2022-12-29T01:59:43;12.50;99.90
27409;DHT22;20413;50.782;7.152;2022-12-29T02:02:11;12.50;99.90
27409;DHT22;20413;50.782;7.152;2022-12-29T02:04:40;12.50;99.90
27409;DHT22;20413;50.782;7.152;2022-12-29T02:07:14;12.50;99.90
27409;DHT22;20413;50.782;7.152;2022-12-29T02:09:41;12.40;99.90
27409;DHT22;20413;50.782;7.152;2022-12-29T02:12:07;12.40;99.90
27409;DHT22;20413;50.782;7.152;2022-12-29T02:14:33;12.50;99.90
27409;DHT22;20413;50.782;7.152;2022-12-29T02:33:59;12.50;99.90
27409;DHT22;20413;50.782;7.152;2022-12-29T02:39:52;12.60;99.90
27409;DHT22;20413;50.782;7.152;2022-12-29T02:45:27;12.50;99.90
27409;DHT22;20413;50.782;7.152;2022-12-29T02:50:37;12.70;99.90
27409;DHT22;20413;50.782;7.152;2022-12-29T02:53:11;12.80;99.90
27409;DHT22;20413;50.782;7.152;2022-12-29T02:55:37;12.70;99.90
27409;DHT22;20413;50.782;7.152;2022-12-29T03:00:38;12.70;99.90
27409;DHT22;20413;50.782;7.152;2022-12-29T03:03:23;12.60;99.90
27409;DHT22;20413;50.782;7.152;2022-12-29T03:08:58;12.70;99.90
27409;DHT22;20413;50.782;7.152;2022-12-29T03:11:33;12.70;99.90
27409;DHT22;20413;50.782;7.152;2022-12-29T03:17:46;12.70;99.90
27409;DHT22;20413;50.782;7.152;2022-12-29T03:20:24;12.60;99.90
27409;DHT22;20413;50.782;7.152;2022-12-29T03:22:56;12.60;99.90
27409;DHT22;20413;50.782;7.152;2022-12-29T03:25:39;12.60;99.90
27409;DHT22;20413;50.782;7.152;2022-12-29T03:28:13;12.60;99.90
27409;DHT22;20413;50.782;7.152;2022-12-29T03:30:43;12.60;99.90
27409;DHT22;20413;50.782;7.152;2022-12-29T03:33:12;12.60;99.90
27409;DHT22;20413;50.782;7.152;2022-12-29T03:35:41;12.50;99.90
27409;DHT22;20413;50.782;7.152;2022-12-29T03:38:19;12.60;99.90
27409;DHT22;20413;50.782;7.152;2022-12-29T03:40:50;12.60;99.90
27409;DHT22;20413;50.782;7.152;2022-12-29T03:43:17;12.60;99.90
27409;DHT22;20413;50.782;7.152;2022-12-29T03:45:43;12.60;99.90
27409;DHT22;20413;50.782;7.152;2022-12-29T03:48:09;12.60;99.90
27409;DHT22;20413;50.782;7.152;2022-12-29T03:50:34;12.70;99.90
27409;DHT22;20413;50.782;7.152;2022-12-29T03:53:00;12.70;99.90
27409;DHT22;20413;50.782;7.152;2022-12-29T03:55:26;12.70;99.90
27409;DHT22;20413;50.782;7.152;2022-12-29T03:57:51;12.60;99.90
27409;DHT22;20413;50.782;7.152;2022-12-29T04:00:17;12.60;99.90
27409;DHT22;20413;50.782;7.152;2022-12-29T04:02:42;12.60;99.90
27409;DHT22;20413;50.782;7.152;2022-12-29T04:05:08;12.60;99.90
27409;DHT22;20413;50.782;7.152;2022-12-29T04:07:34;12.60;99.90
27409;DHT22;20413;50.782;7.152;2022-12-29T04:09:59;12.60;99.90
27409;DHT22;20413;50.782;7.152;2022-12-29T04:12:25;12.60;99.90
27409;DHT22;20413;50.782;7.152;2022-12-29T04:14:50;12.60;99.90
27409;DHT22;20413;50.782;7.152;2022-12-29T04:17:16;12.50;99.90
27409;DHT22;20413;50.782;7.152;2022-12-29T04:19:41;12.40;99.90
27409;DHT22;20413;50.782;7.152;2022-12-29T04:22:07;12.40;99.90
27409;DHT22;20413;50.782;7.152;2022-12-29T04:24:33;12.40;99.90
27409;DHT22;20413;50.782;7.152;2022-12-29T04:26:58;12.40;99.90
27409;DHT22;20413;50.782;7.152;2022-12-29T04:29:24;12.40;99.90
27409;DHT22;20413;50.782;7.152;2022-12-29T04:31:49;12.40;99.90
27409;DHT22;20413;50.782;7.152;2022-12-29T04:34:15;12.40;99.90
27409;DHT22;20413;50.782;7.152;2022-12-29T04:36:40;12.30;99.90
27409;DHT22;20413;50.782;7.152;2022-12-29T04:39:06;12.20;99.90
27409;DHT22;20413;50.782;7.152;2022-12-29T04:41:32;12.30;99.90
27409;DHT22;20413;50.782;7.152;2022-12-29T04:43:58;12.40;99.90
27409;DHT22;20413;50.782;7.152;2022-12-29T04:46:23;12.30;99.90
27409;DHT22;20413;50.782;7.152;2022-12-29T04:48:49;12.30;99.90
27409;DHT22;20413;50.782;7.152;2022-12-29T04:51:14;12.20;99.90
27409;DHT22;20413;50.782;7.152;2022-12-29T04:53:40;12.30;99.90
27409;DHT22;20413;50.782;7.152;2022-12-29T04:56:06;12.20;99.90
27409;DHT22;20413;50.782;7.152;2022-12-29T04:58:32;12.20;99.90
27409;DHT22;20413;50.782;7.152;2022-12-29T05:00:57;12.30;99.90
27409;DHT22;20413;50.782;7.152;2022-12-29T05:03:23;12.30;99.90
27409;DHT22;20413;50.782;7.152;2022-12-29T05:05:48;12.20;99.90
27409;DHT22;20413;50.782;7.152;2022-12-29T05:08:14;12.20;99.90
27409;DHT22;20413;50.782;7.152;2022-12-29T05:10:39;12.30;99.90
27409;DHT22;20413;50.782;7.152;2022-12-29T05:13:05;12.30;99.90
27409;DHT22;20413;50.782;7.152;2022-12-29T05:15:31;12.20;99.90
27409;DHT22;20413;50.782;7.152;2022-12-29T05:17:56;12.10;99.90
27409;DHT22;20413;50.782;7.152;2022-12-29T05:20:22;12.10;99.90
27409;DHT22;20413;50.782;7.152;2022-12-29T05:22:47;12.10;99.90
27409;DHT22;20413;50.782;7.152;2022-12-29T05:25:13;12.00;99.90
27409;DHT22;20413;50.782;7.152;2022-12-29T05:27:38;12.10;99.90
27409;DHT22;20413;50.782;7.152;2022-12-29T05:30:04;12.10;99.90
27409;DHT22;20413;50.782;7.152;2022-12-29T05:32:30;12.10;99.90
27409;DHT22;20413;50.782;7.152;2022-12-29T05:34:56;12.10;99.90
27409;DHT22;20413;50.782;7.152;2022-12-29T05:37:22;12.00;99.90
27409;DHT22;20413;50.782;7.152;2022-12-29T05:39:47;12.00;99.90
27409;DHT22;20413;50.782;7.152;2022-12-29T05:42:13;11.90;99.90
27409;DHT22;20413;50.782;7.152;2022-12-29T05:44:38;11.90;99.90
27409;DHT22;20413;50.782;7.152;2022-12-29T05:47:04;11.80;99.90
27409;DHT22;20413;50.782;7.152;2022-12-29T05:49:29;11.80;99.90
27409;DHT22;20413;50.782;7.152;2022-12-29T05:51:55;11.90;99.90
27409;DHT22;20413;50.782;7.152;2022-12-29T05:54:20;11.90;99.90
27409;DHT22;20413;50.782;7.152;2022-12-29T05:56:46;11.90;99.90
27409;DHT22;20413;50.782;7.152;2022-12-29T05:59:12;11.90;99.90
27409;DHT22;20413;50.782;7.152;2022-12-29T06:01:37;12.00;99.90
27409;DHT22;20413;50.782;7.152;2022-12-29T06:04:03;12.00;99.90
27409;DHT22;20413;50.782;7.152;2022-12-29T06:06:28;11.90;99.90
27409;DHT22;20413;50.782;7.152;2022-12-29T06:08:54;11.80;99.90
27409;DHT22;20413;50.782;7.152;2022-12-29T06:11:20;11.70;99.90
27409;DHT22;20413;50.782;7.152;2022-12-29T06:13:45;11.60;99.90
27409;DHT22;20413;50.782;7.152;2022-12-29T06:16:11;11.70;99.90
27409;DHT22;20413;50.782;7.152;2022-12-29T06:18:36;11.70;99.90
27409;DHT22;20413;50.782;7.152;2022-12-29T06:21:04;11.60;99.90
27409;DHT22;20413;50.782;7.152;2022-12-29T06:23:30;11.60;99.90
27409;DHT22;20413;50.782;7.152;2022-12-29T06:25:56;11.50;99.90
27409;DHT22;20413;50.782;7.152;2022-12-29T06:28:23;11.40;99.90
27409;DHT22;20413;50.782;7.152;2022-12-29T06:30:48;11.40;99.90
27409;DHT22;20413;50.782;7.152;2022-12-29T06:33:15;11.50;99.90
27409;DHT22;20413;50.782;7.152;2022-12-29T06:35:42;11.40;99.90
27409;DHT22;20413;50.782;7.152;2022-12-29T06:38:08;11.40;99.90
27409;DHT22;20413;50.782;7.152;2022-12-29T06:40:34;11.30;99.90
27409;DHT22;20413;50.782;7.152;2022-12-29T06:42:59;11.30;99.90
27409;DHT22;20413;50.782;7.152;2022-12-29T06:45:25;11.30;99.90
27409;DHT22;20413;50.782;7.152;2022-12-29T06:47:50;11.30;99.90
27409;DHT22;20413;50.782;7.152;2022-12-29T06:50:16;11.30;99.90
27409;DHT22;20413;50.782;7.152;2022-12-29T06:52:44;11.30;99.90
27409;DHT22;20413;50.782;7.152;2022-12-29T06:55:10;11.30;99.90
27409;DHT22;20413;50.782;7.152;2022-12-29T06:57:35;11.30;99.90
27409;DHT22;20413;50.782;7.152;2022-12-29T07:00:02;11.30;99.90
27409;DHT22;20413;50.782;7.152;2022-12-29T07:02:28;11.40;99.90
27409;DHT22;20413;50.782;7.152;2022-12-29T15:23:26;11.00;99.90
27409;DHT22;20413;50.782;7.152;2022-12-29T15:48:42;9.80;99.90
27409;DHT22;20413;50.782;7.152;2022-12-29T15:51:30;9.70;99.90
27409;DHT22;20413;50.782;7.152;2022-12-29T15:53:58;9.70;99.90
27409;DHT22;20413;50.782;7.152;2022-12-29T15:56:24;9.60;99.90
27409;DHT22;20413;50.782;7.152;2022-12-29T15:58:53;9.50;99.90
27409;DHT22;20413;50.782;7.152;2022-12-29T16:01:33;9.40;99.90
27409;DHT22;20413;50.782;7.152;2022-12-29T16:04:01;9.30;99.90
27409;DHT22;20413;50.782;7.152;2022-12-29T16:06:31;9.30;99.90
27409;DHT22;20413;50.782;7.152;2022-12-29T16:11:37;9.20;99.90
27409;DHT22;20413;50.782;7.152;2022-12-29T16:14:18;9.20;99.90
27409;DHT22;20413;50.782;7.152;2022-12-29T16:16:46;9.20;99.90
27409;DHT22;20413;50.782;7.152;2022-12-29T16:19:14;9.20;99.90
27409;DHT22;20413;50.782;7.152;2022-12-29T16:21:41;9.30;99.90
27409;DHT22;20413;50.782;7.152;2022-12-29T16:24:13;9.30;99.90
27409;DHT22;20413;50.782;7.152;2022-12-29T16:26:39;9.30;99.90
27409;DHT22;20413;50.782;7.152;2022-12-29T16:29:12;9.20;99.90
27409;DHT22;20413;50.782;7.152;2022-12-29T16:31:56;9.10;99.90
27409;DHT22;20413;50.782;7.152;2022-12-29T16:37:32;9.00;99.90
27409;DHT22;20413;50.782;7.152;2022-12-29T16:40:25;8.90;99.90
27409;DHT22;20413;50.782;7.152;2022-12-29T16:43:02;8.80;99.90
27409;DHT22;20413;50.782;7.152;2022-12-29T16:48:17;8.70;99.90
27409;DHT22;20413;50.782;7.152;2022-12-29T16:50:44;8.60;99.90
27409;DHT22;20413;50.782;7.152;2022-12-29T16:53:40;8.60;99.90
27409;DHT22;20413;50.782;7.152;2022-12-29T16:56:15;8.70;99.90
27409;DHT22;20413;50.782;7.152;2022-12-29T16:58:46;8.70;99.90
27409;DHT22;20413;50.782;7.152;2022-12-29T17:01:12;8.80;99.90
27409;DHT22;20413;50.782;7.152;2022-12-29T17:03:50;8.90;99.90
27409;DHT22;20413;50.782;7.152;2022-12-29T17:06:17;9.00;99.90
27409;DHT22;20413;50.782;7.152;2022-12-29T17:08:44;9.00;99.90
27409;DHT22;20413;50.782;7.152;2022-12-29T17:14:20;9.00;99.90
27409;DHT22;20413;50.782;7.152;2022-12-29T17:16:47;8.90;99.90
27409;DHT22;20413;50.782;7.152;2022-12-29T17:19:17;8.90;99.90
27409;DHT22;20413;50.782;7.152;2022-12-29T17:21:43;8.80;99.90
27409;DHT22;20413;50.782;7.152;2022-12-29T17:24:16;8.80;99.90
27409;DHT22;20413;50.782;7.152;2022-12-29T17:26:44;8.80;99.90
27409;DHT22;20413;50.782;7.152;2022-12-29T17:29:18;8.80;99.90
27409;DHT22;20413;50.782;7.152;2022-12-29T17:31:45;8.80;99.90
27409;DHT22;20413;50.782;7.152;2022-12-29T17:34:12;8.80;99.90
27409;DHT22;20413;50.782;7.152;2022-12-29T17:36:38;8.80;99.90
27409;DHT22;20413;50.782;7.152;2022-12-29T17:39:05;8.70;99.90
27409;DHT22;20413;50.782;7.152;2022-12-29T17:41:32;8.80;99.90
27409;DHT22;20413;50.782;7.152;2022-12-29T17:44:00;8.80;99.90
27409;DHT22;20413;50.782;7.152;2022-12-29T17:46:26;8.80;99.90
27409;DHT22;20413;50.782;7.152;2022-12-29T17:48:51;8.70;99.90
27409;DHT22;20413;50.782;7.152;2022-12-29T17:51:19;8.70;99.90
27409;DHT22;20413;50.782;7.152;2022-12-29T17:53:45;8.60;99.90
27409;DHT22;20413;50.782;7.152;2022-12-29T17:56:11;8.60;99.90
27409;DHT22;20413;50.782;7.152;2022-12-29T17:58:36;8.50;99.90
27409;DHT22;20413;50.782;7.152;2022-12-29T18:01:03;8.60;99.90
27409;DHT22;20413;50.782;7.152;2022-12-29T18:03:39;8.60;99.90
27409;DHT22;20413;50.782;7.152;2022-12-29T18:06:06;8.60;99.90
27409;DHT22;20413;50.782;7.152;2022-12-29T18:08:37;8.60;99.90
27409;DHT22;20413;50.782;7.152;2022-12-29T18:11:05;8.70;99.90
27409;DHT22;20413;50.782;7.152;2022-12-29T18:13:31;8.60;99.90
27409;DHT22;20413;50.782;7.152;2022-12-29T18:15:59;8.50;99.90
27409;DHT22;20413;50.782;7.152;2022-12-29T18:18:26;8.50;99.90
27409;DHT22;20413;50.782;7.152;2022-12-29T18:20:54;8.40;99.90
27409;DHT22;20413;50.782;7.152;2022-12-29T18:23:27;8.30;99.90
27409;DHT22;20413;50.782;7.152;2022-12-29T18:26:00;8.40;99.90
27409;DHT22;20413;50.782;7.152;2022-12-29T18:28:27;8.40;99.90
27409;DHT22;20413;50.782;7.152;2022-12-29T18:30:56;8.50;99.90
27409;DHT22;20413;50.782;7.152;2022-12-29T18:33:22;8.60;99.90
27409;DHT22;20413;50.782;7.152;2022-12-29T18:36:02;8.60;99.90
27409;DHT22;20413;50.782;7.152;2022-12-29T18:38:28;8.70;99.90
27409;DHT22;20413;50.782;7.152;2022-12-29T18:40:54;8.80;99.90
27409;DHT22;20413;50.782;7.152;2022-12-29T18:43:20;8.80;99.90
27409;DHT22;20413;50.782;7.152;2022-12-29T18:45:46;8.80;99.90
27409;DHT22;20413;50.782;7.152;2022-12-29T18:48:13;8.90;99.90
27409;DHT22;20413;50.782;7.152;2022-12-29T18:50:38;9.00;99.90
27409;DHT22;20413;50.782;7.152;2022-12-29T18:53:04;9.00;99.90
27409;DHT22;20413;50.782;7.152;2022-12-29T18:55:30;9.10;99.90
27409;DHT22;20413;50.782;7.152;2022-12-29T18:57:55;9.10;99.90
27409;DHT22;20413;50.782;7.152;2022-12-29T19:00:22;9.10;99.90
27409;DHT22;20413;50.782;7.152;2022-12-29T19:02:49;9.10;99.90
27409;DHT22;20413;50.782;7.152;2022-12-29T19:07:47;9.10;99.90
27409;DHT22;20413;50.782;7.152;2022-12-29T19:10:12;9.10;99.90
27409;DHT22;20413;50.782;7.152;2022-12-29T19:12:38;9.10;99.90
27409;DHT22;20413;50.782;7.152;2022-12-29T19:15:04;9.00;99.90
27409;DHT22;20413;50.782;7.152;2022-12-29T19:17:34;9.00;99.90
27409;DHT22;20413;50.782;7.152;2022-12-29T19:20:00;8.90;99.90
27409;DHT22;20413;50.782;7.152;2022-12-29T19:22:26;9.00;99.90
27409;DHT22;20413;50.782;7.152;2022-12-29T19:24:52;9.10;99.90
27409;DHT22;20413;50.782;7.152;2022-12-29T19:27:18;9.10;99.90
27409;DHT22;20413;50.782;7.152;2022-12-29T19:29:44;9.10;99.90
27409;DHT22;20413;50.782;7.152;2022-12-29T19:32:10;9.30;99.90
27409;DHT22;20413;50.782;7.152;2022-12-29T19:34:35;9.40;99.90
27409;DHT22;20413;50.782;7.152;2022-12-29T19:37:01;9.50;99.90
27409;DHT22;20413;50.782;7.152;2022-12-29T19:39:27;9.50;99.90
27409;DHT22;20413;50.782;7.152;2022-12-29T19:41:54;9.40;99.90
27409;DHT22;20413;50.782;7.152;2022-12-29T19:44:19;9.30;99.90
27409;DHT22;20413;50.782;7.152;2022-12-29T19:46:45;9.20;99.90
27409;DHT22;20413;50.782;7.152;2022-12-29T19:49:11;9.20;99.90
27409;DHT22;20413;50.782;7.152;2022-12-29T19:51:36;9.10;99.90
27409;DHT22;20413;50.782;7.152;2022-12-29T19:54:02;9.00;99.90
27409;DHT22;20413;50.782;7.152;2022-12-29T19:56:27;9.00;99.90
27409;DHT22;20413;50.782;7.152;2022-12-29T19:58:53;9.00;99.90
27409;DHT22;20413;50.782;7.152;2022-12-29T20:01:21;9.00;99.90
27409;DHT22;20413;50.782;7.152;2022-12-29T20:03:47;9.00;99.90
27409;DHT22;20413;50.782;7.152;2022-12-29T20:06:13;8.90;99.90
27409;DHT22;20413;50.782;7.152;2022-12-29T20:08:40;8.90;99.90
27409;DHT22;20413;50.782;7.152;2022-12-29T20:11:11;9.00;99.90
27409;DHT22;20413;50.782;7.152;2022-12-29T20:13:37;9.00;99.90
27409;DHT22;20413;50.782;7.152;2022-12-29T20:16:05;9.10;99.90
27409;DHT22;20413;50.782;7.152;2022-12-29T20:18:32;9.30;99.90
27409;DHT22;20413;50.782;7.152;2022-12-29T20:21:17;9.40;99.90
27409;DHT22;20413;50.782;7.152;2022-12-29T20:23:43;9.40;99.90
27409;DHT22;20413;50.782;7.152;2022-12-29T20:26:16;9.30;99.90
27409;DHT22;20413;50.782;7.152;2022-12-29T20:28:41;9.30;99.90
27409;DHT22;20413;50.782;7.152;2022-12-29T20:31:23;9.30;99.90
27409;DHT22;20413;50.782;7.152;2022-12-29T20:33:49;9.30;99.90
27409;DHT22;20413;50.782;7.152;2022-12-29T20:36:22;9.30;99.90
27409;DHT22;20413;50.782;7.152;2022-12-29T20:38:48;9.30;99.90
27409;DHT22;20413;50.782;7.152;2022-12-29T20:41:14;9.30;99.90
27409;DHT22;20413;50.782;7.152;2022-12-29T20:43:40;9.20;99.90
27409;DHT22;20413;50.782;7.152;2022-12-29T20:46:06;9.20;99.90
27409;DHT22;20413;50.782;7.152;2022-12-29T20:48:32;9.20;99.90
27409;DHT22;20413;50.782;7.152;2022-12-29T20:50:57;9.20;99.90
27409;DHT22;20413;50.782;7.152;2022-12-29T20:53:25;9.10;99.90
27409;DHT22;20413;50.782;7.152;2022-12-29T20:55:52;9.00;99.90
27409;DHT22;20413;50.782;7.152;2022-12-29T20:58:18;9.00;99.90
27409;DHT22;20413;50.782;7.152;2022-12-29T21:00:44;8.90;99.90
27409;DHT22;20413;50.782;7.152;2022-12-29T21:03:09;8.80;99.90
27409;DHT22;20413;50.782;7.152;2022-12-29T21:05:38;8.70;99.90
27409;DHT22;20413;50.782;7.152;2022-12-29T21:08:04;8.60;99.90
27409;DHT22;20413;50.782;7.152;2022-12-29T21:10:30;8.40;99.90
27409;DHT22;20413;50.782;7.152;2022-12-29T21:12:56;8.30;99.90
27409;DHT22;20413;50.782;7.152;2022-12-29T21:15:21;8.10;99.90
27409;DHT22;20413;50.782;7.152;2022-12-29T21:17:47;8.10;99.90
27409;DHT22;20413;50.782;7.152;2022-12-29T21:20:14;7.90;99.90
27409;DHT22;20413;50.782;7.152;2022-12-29T21:22:54;7.80;99.90
27409;DHT22;20413;50.782;7.152;2022-12-29T21:25:21;7.70;99.90
27409;DHT22;20413;50.782;7.152;2022-12-29T21:27:46;7.70;99.90
27409;DHT22;20413;50.782;7.152;2022-12-29T21:30:12;7.70;99.90
27409;DHT22;20413;50.782;7.152;2022-12-29T21:32:39;7.80;99.90
27409;DHT22;20413;50.782;7.152;2022-12-29T21:35:05;7.80;99.90
27409;DHT22;20413;50.782;7.152;2022-12-29T21:37:31;7.80;99.90
27409;DHT22;20413;50.782;7.152;2022-12-29T21:39:56;7.70;99.90
27409;DHT22;20413;50.782;7.152;2022-12-29T21:42:22;7.70;99.90
27409;DHT22;20413;50.782;7.152;2022-12-29T21:44:48;7.70;99.90
27409;DHT22;20413;50.782;7.152;2022-12-29T21:47:33;7.70;99.90
27409;DHT22;20413;50.782;7.152;2022-12-29T21:50:17;7.70;99.90
27409;DHT22;20413;50.782;7.152;2022-12-29T21:52:43;7.70;99.90
27409;DHT22;20413;50.782;7.152;2022-12-29T21:55:08;7.70;99.90
27409;DHT22;20413;50.782;7.152;2022-12-29T21:57:34;7.70;99.90
27409;DHT22;20413;50.782;7.152;2022-12-29T22:00:19;7.70;99.90
27409;DHT22;20413;50.782;7.152;2022-12-29T22:03:03;7.80;99.90
27409;DHT22;20413;50.782;7.152;2022-12-29T22:05:47;7.70;99.90
27409;DHT22;20413;50.782;7.152;2022-12-29T22:08:31;7.70;99.90
27409;DHT22;20413;50.782;7.152;2022-12-29T22:11:15;7.60;99.90
27409;DHT22;20413;50.782;7.152;2022-12-29T22:13:59;7.60;99.90
27409;DHT22;20413;50.782;7.152;2022-12-29T22:16:26;7.50;99.90
27409;DHT22;20413;50.782;7.152;2022-12-29T22:18:52;7.40;99.90
27409;DHT22;20413;50.782;7.152;2022-12-29T22:21:18;7.30;99.90
27409;DHT22;20413;50.782;7.152;2022-12-29T22:23:44;7.30;99.90
27409;DHT22;20413;50.782;7.152;2022-12-29T22:26:12;7.30;99.90
27409;DHT22;20413;50.782;7.152;2022-12-29T22:28:40;7.20;99.90
27409;DHT22;20413;50.782;7.152;2022-12-29T22:31:17;7.40;99.90
27409;DHT22;20413;50.782;7.152;2022-12-29T22:33:45;7.40;99.90
27409;DHT22;20413;50.782;7.152;2022-12-29T22:36:10;7.30;99.90
27409;DHT22;20413;50.782;7.152;2022-12-29T22:38:36;7.30;99.90
27409;DHT22;20413;50.782;7.152;2022-12-29T22:41:01;7.30;99.90
27409;DHT22;20413;50.782;7.152;2022-12-29T22:43:27;7.40;99.90
27409;DHT22;20413;50.782;7.152;2022-12-29T22:46:03;7.40;99.90
27409;DHT22;20413;50.782;7.152;2022-12-29T22:48:32;7.30;99.90
27409;DHT22;20413;50.782;7.152;2022-12-29T22:50:58;7.30;99.90
27409;DHT22;20413;50.782;7.152;2022-12-29T22:53:23;7.30;99.90
27409;DHT22;20413;50.782;7.152;2022-12-29T22:55:49;7.30;99.90
27409;DHT22;20413;50.782;7.152;2022-12-29T22:58:14;7.30;99.90
27409;DHT22;20413;50.782;7.152;2022-12-29T23:00:40;7.40;99.90
27409;DHT22;20413;50.782;7.152;2022-12-29T23:03:05;7.30;99.90
27409;DHT22;20413;50.782;7.152;2022-12-29T23:05:31;7.30;99.90
27409;DHT22;20413;50.782;7.152;2022-12-29T23:07:57;7.30;99.90
27409;DHT22;20413;50.782;7.152;2022-12-29T23:10:22;7.30;99.90
27409;DHT22;20413;50.782;7.152;2022-12-29T23:12:48;7.20;99.90
27409;DHT22;20413;50.782;7.152;2022-12-29T23:15:13;7.20;99.90
27409;DHT22;20413;50.782;7.152;2022-12-29T23:17:39;7.10;99.90
27409;DHT22;20413;50.782;7.152;2022-12-29T23:20:06;7.10;99.90
27409;DHT22;20413;50.782;7.152;2022-12-29T23:22:32;7.10;99.90
27409;DHT22;20413;50.782;7.152;2022-12-29T23:24:58;7.10;99.90
27409;DHT22;20413;50.782;7.152;2022-12-29T23:27:23;7.00;99.90
27409;DHT22;20413;50.782;7.152;2022-12-29T23:29:49;7.10;99.90
27409;DHT22;20413;50.782;7.152;2022-12-29T23:32:14;7.00;99.90
27409;DHT22;20413;50.782;7.152;2022-12-29T23:34:40;7.00;99.90
27409;DHT22;20413;50.782;7.152;2022-12-29T23:37:06;6.90;99.90
27409;DHT22;20413;50.782;7.152;2022-12-29T23:39:31;6.90;99.90
27409;DHT22;20413;50.782;7.152;2022-12-29T23:41:57;6.90;99.90
27409;DHT22;20413;50.782;7.152;2022-12-29T23:44:22;6.90;99.90
27409;DHT22;20413;50.782;7.152;2022-12-29T23:46:48;6.90;99.90
27409;DHT22;20413;50.782;7.152;2022-12-29T23:49:14;6.90;99.90
27409;DHT22;20413;50.782;7.152;2022-12-29T23:51:39;6.90;99.90
27409;DHT22;20413;50.782;7.152;2022-12-29T23:54:05;6.90;99.90
27409;DHT22;20413;50.782;7.152;2022-12-29T23:56:31;6.90;99.90
27409;DHT22;20413;50.782;7.152;2022-12-29T23:58:56;6.80;99.90
